Estació municipal de Seva (Osona, P.N. del Montseny)

Consulta les dades en temps real de l'estació municipal de Seva





Hora UTC 05:40
Temperatura 18.0 ºC
Sòl 15 cm 16.7 ºC
Humitat 94.6 %
Pressió 1023.4 hPa
Pluja 0.0 mm
Velocitat vent 5.1 km/h
Direcció vent ESE
Radiació solar 13.2 W/m²

Webcam

Dades diàries 2026-09-01



Hora UTC (hivern +1h; estiu +2h)
Temperatura (ºC) Humitat (%) Pressió (hPa) Velocitat vent (km/h) Precipitació (mm) Radiació solar (W/m²)
Hora UTC Aire Sòl 15 cm Humitat Pressió Vel. Dir. Vel. Max Dir. Intent. màx 5 min. Rad. Sol.
00:05 19.2 18.3 90.5 1024.4 3.7 S 3.7 S 0.0 0.1
00:10 19.3 18.6 90.3 1024.4 2.1 SSE 4.9 SSE 0.0 0.0
00:15 19.4 18.8 89.9 1024.3 1.6 SSE 4.6 SSE 0.0 0.1
00:20 19.4 18.9 90.0 1024.4 1.4 SSE 4.9 SE 0.0 0.1
00:25 19.6 19.1 90.5 1024.3 2.3 SSE 5.3 ESE 0.0 0.1
00:30 19.8 19.2 90.7 1024.3 3.3 SE 7.4 ESE 0.0 0.1
00:35 19.9 19.3 90.9 1024.2 4.1 SE 7.1 SSE 0.0 0.1
00:40 19.9 19.4 90.6 1024.2 3.8 SE 7.1 SE 0.0 0.1
00:45 20.0 19.4 90.9 1024.2 4.2 SSE 8.1 SSE 0.0 0.0
00:50 20.1 19.5 91.0 1024.2 3.8 SSE 7.8 SSE 0.0 0.1
00:55 20.1 19.6 91.1 1024.2 4.3 SE 10.9 ESE 0.0 0.0
01:00 20.1 19.6 91.2 1024.2 3.7 SE 8.1 SSE 0.0 0.0
01:05 20.1 19.7 91.2 1024.3 4.7 SE 9.2 SE 0.0 0.0
01:10 20.2 19.6 91.2 1024.2 2.5 SSE 7.4 SSE 0.0 0.1
01:15 20.2 19.7 91.1 1024.2 2.3 SSE 5.6 SSE 0.0 0.1
01:20 20.2 19.7 90.9 1024.2 2.4 SSE 6.4 SE 0.0 0.0
01:25 20.2 19.6 90.8 1024.2 1.8 SE 3.9 E 0.0 0.1
01:30 20.1 19.4 90.9 1024.2 3.1 SSE 5.3 SSE 0.0 0.1
01:35 20.1 19.4 91.1 1024.2 2.1 SE 5.3 ESE 0.0 0.0
01:40 20.1 19.4 91.2 1024.2 2.5 SE 6.4 SE 0.0 0.0
01:45 20.0 19.3 91.4 1024.2 2.2 SE 5.6 SSE 0.0 0.0
01:50 20.0 19.2 91.6 1024.2 3.5 ESE 6.0 E 0.0 0.0
01:55 20.0 19.2 91.8 1024.2 3.0 SE 6.0 SE 0.0 0.1
02:00 20.0 19.1 91.9 1024.2 2.7 SSE 5.6 S 0.0 0.0
02:05 20.0 19.3 91.8 1024.2 1.4 SSE 3.5 SSW 0.0 0.1
02:10 20.0 19.4 91.7 1024.1 1.4 S 4.6 SE 0.0 0.1
02:15 20.0 19.5 91.5 1024.1 2.2 S 5.3 S 0.0 0.0
02:20 20.1 19.6 91.3 1024.1 1.8 S 4.6 SSW 0.0 0.0
02:25 20.1 19.7 91.2 1024.1 1.2 S 4.9 S 0.0 0.1
02:30 20.1 19.7 91.1 1024.0 3.4 SSE 7.1 S 0.0 0.0
02:35 20.2 19.7 91.1 1023.9 3.5 SSE 6.7 SSE 0.0 0.1
02:40 20.2 19.7 91.1 1023.9 2.7 SSE 6.4 ESE 0.0 0.1
02:45 20.2 19.7 91.0 1023.8 3.0 SE 6.7 SSE 0.0 0.0
02:50 20.2 19.6 91.0 1023.8 3.0 SSE 7.1 SE 0.0 0.0
02:55 20.2 19.6 91.0 1023.7 3.1 SE 6.7 SE 0.0 0.1
03:00 20.2 19.4 91.0 1023.7 2.9 SE 5.3 SE 0.0 0.0
03:05 20.1 19.3 91.0 1023.7 1.8 SE 3.9 SSE 0.0 0.0
03:10 20.1 19.3 91.0 1023.7 1.6 SSE 3.2 SSE 0.0 0.1
03:15 20.0 19.2 91.0 1023.7 2.0 SSE 4.2 SE 0.0 0.0
03:20 20.0 19.1 91.1 1023.6 2.2 SE 3.9 SE 0.0 0.0
03:25 19.9 19.1 91.1 1023.6 2.6 SE 4.2 ESE 0.0 0.0
03:30 19.9 19.1 90.9 1023.5 3.5 ESE 5.6 ESE 0.0 0.1
03:35 19.9 19.2 90.7 1023.5 3.0 SE 4.6 SE 0.0 0.1
03:40 19.9 19.2 90.5 1023.5 3.3 SE 4.9 SE 0.0 0.1
03:45 19.9 19.2 90.2 1023.5 1.7 SSE 3.9 SE 0.0 0.0
03:50 19.9 19.3 90.1 1023.5 0.3 SSE 1.8 S 0.0 0.0
03:55 19.9 19.2 90.1 1023.4 1.3 SE 3.5 ESE 0.0 0.0
04:00 19.9 19.2 90.0 1023.4 2.5 ESE 3.5 ESE 0.0 0.0
04:05 19.9 19.2 89.9 1023.4 2.3 ESE 3.5 ESE 0.0 0.1
04:10 19.8 19.2 89.8 1023.4 2.9 E 3.9 ENE 0.0 0.0
04:15 19.8 19.2 89.9 1023.4 2.2 ESE 3.5 ESE 0.0 0.0
04:20 19.9 19.2 90.0 1023.3 3.7 SE 6.4 SE 0.0 0.1
04:25 19.8 19.1 89.7 1023.3 3.9 SE 6.4 ESE 0.0 0.1
04:30 19.8 18.9 89.3 1023.2 3.3 SE 6.0 ESE 0.0 0.1
04:35 19.7 18.6 89.2 1023.2 1.6 NNW 4.2 NW 0.0 0.1
04:40 19.5 18.3 89.3 1023.3 1.4 WNW 4.2 NW 0.0 0.0
04:45 19.3 17.8 89.8 1023.2 0.2 ESE 2.1 ESE 0.0 0.1
04:50 19.1 17.4 90.7 1023.2 2.4 SE 3.2 SE 0.0 0.1
04:55 18.9 17.1 91.3 1023.2 0.9 SE 2.1 SE 0.0 0.1
05:00 18.7 17.0 91.7 1023.2 1.3 NNW 3.2 NNW 0.0 0.2
05:05 18.6 16.8 92.0 1023.3 1.8 WNW 3.5 W 0.0 0.5
05:10 18.4 16.6 92.5 1023.3 1.7 SW 3.2 SW 0.0 1.0
05:15 18.3 16.5 93.1 1023.3 2.7 S 3.5 S 0.0 1.9
05:20 18.1 16.5 93.3 1023.3 1.9 SE 3.2 SSE 0.0 3.1
05:25 18.0 16.5 93.5 1023.3 1.8 E 4.2 E 0.0 4.8
05:30 17.9 16.5 93.9 1023.3 4.2 E 5.3 E 0.0 7.2
05:35 18.0 16.6 94.3 1023.4 5.0 E 6.4 ESE 0.0 9.6
05:40 18.0 16.7 94.6 1023.4 5.1 ESE 6.0 E 0.0 13.2
Màxima 20.2 19.7 94.6 1024.4 5.1 ESE 10.9 ESE 0.0 13.2
Mínima 17.9 16.5 89.2 1023.2
Total 0.0